Time;durP1;ratioP1;P1;durP2;ratioP2;P2;SDS_P1;SDS_P2;PMS_P1;PMS_P2;Temp;Humidity;BMP_temperature;BMP_pressure;BME280_temperature;BME280_humidity;BME280_pressure;Samples;Min_cycle;Max_cycle;Signal;HPM_P1;HPM_P2
2022/07/03 00:00:08;;;;;;;32.47;29.20;;;;;;;14.91;nan;99730.97;2092152;28;20230;-79
2022/07/03 00:01:18;;;;;;;33.03;29.93;;;;;;;14.90;nan;99713.28;2099479;28;20534;-79
2022/07/03 00:02:20;;;;;;;32.23;29.03;;;;;;;14.90;nan;99726.72;2099568;28;20431;-79
2022/07/03 00:03:20;;;;;;;32.23;29.13;;;;;;;14.88;nan;99722.75;2091735;28;20256;-79
2022/07/03 00:04:22;;;;;;;31.30;28.03;;;;;;;14.87;nan;99719.28;2091373;28;20419;-79
2022/07/03 00:05:24;;;;;;;31.83;28.53;;;;;;;14.88;nan;99722.75;2100207;28;20202;-79
2022/07/03 00:06:27;;;;;;;31.23;28.23;;;;;;;14.85;nan;99721.44;2099029;28;20456;-79
2022/07/03 00:07:28;;;;;;;32.23;29.03;;;;;;;14.85;nan;99713.38;2099433;28;20449;-79
2022/07/03 00:08:29;;;;;;;32.53;29.30;;;;;;;14.83;nan;99712.91;2091941;28;20481;-79
2022/07/03 00:09:30;;;;;;;31.33;28.13;;;;;;;14.83;nan;99712.13;2091209;28;20270;-79
2022/07/03 00:10:33;;;;;;;31.43;28.37;;;;;;;14.82;nan;99714.00;2092039;28;20911;-79
2022/07/03 00:11:35;;;;;;;33.00;29.57;;;;;;;14.83;nan;99712.13;2091804;28;20226;-79
2022/07/03 00:12:38;;;;;;;31.43;28.50;;;;;;;14.82;nan;99710.53;2091777;28;20425;-79
2022/07/03 00:13:40;;;;;;;30.57;27.67;;;;;;;14.79;nan;99713.84;2091702;28;20490;-79
2022/07/03 00:14:42;;;;;;;30.77;27.67;;;;;;;14.79;nan;99711.16;2091754;28;20425;-79
2022/07/03 00:15:43;;;;;;;32.37;29.20;;;;;;;14.78;nan;99710.38;2099647;28;20546;-79
2022/07/03 00:16:45;;;;;;;32.90;29.80;;;;;;;14.82;nan;99713.22;2099677;28;20442;-79
2022/07/03 00:17:46;;;;;;;32.87;29.47;;;;;;;14.82;nan;99711.34;2091741;28;20468;-79
2022/07/03 00:18:48;;;;;;;32.63;29.23;;;;;;;14.87;nan;99707.72;2099273;28;20436;-79
2022/07/03 00:19:50;;;;;;;32.23;28.93;;;;;;;14.84;nan;99700.28;2099544;28;20194;-79
2022/07/03 00:21:00;;;;;;;32.30;29.00;;;;;;;14.86;nan;99706.94;2091758;28;20418;-76
2022/07/03 00:22:03;;;;;;;32.00;28.70;;;;;;;14.85;nan;99709.91;2091807;28;20405;-79
2022/07/03 00:23:05;;;;;;;32.40;29.33;;;;;;;14.84;nan;99705.66;2099471;28;20464;-79
2022/07/03 00:24:09;;;;;;;31.00;27.90;;;;;;;14.84;nan;99708.34;2099177;28;20505;-79
2022/07/03 00:25:12;;;;;;;32.20;28.90;;;;;;;14.84;nan;99705.66;2091699;28;20460;-79
2022/07/03 00:26:16;;;;;;;31.00;27.10;;;;;;;14.82;nan;99705.16;2091920;28;20810;-79
2022/07/03 00:27:20;;;;;;;31.17;28.03;;;;;;;14.83;nan;99704.06;2099486;28;20938;-79
2022/07/03 00:28:26;;;;;;;32.13;28.90;;;;;;;14.84;nan;99698.38;2098779;28;20432;-79
2022/07/03 00:29:33;;;;;;;29.45;26.65;;;;;;;14.83;nan;99704.84;2099722;28;20464;-79
2022/07/03 00:30:34;;;;;;;30.77;27.53;;;;;;;14.86;nan;99700.78;2099074;28;20296;-79
2022/07/03 00:31:35;;;;;;;32.27;29.17;;;;;;;14.85;nan;99704.53;2100278;28;20821;-79
2022/07/03 00:32:38;;;;;;;31.50;28.47;;;;;;;14.87;nan;99710.41;2099208;28;20568;-79
2022/07/03 00:33:42;;;;;;;30.77;27.77;;;;;;;14.90;nan;99699.84;2099076;28;20424;-79
2022/07/03 00:34:44;;;;;;;30.73;27.77;;;;;;;14.91;nan;99695.25;2099174;28;20463;-79
2022/07/03 00:35:45;;;;;;;30.83;27.83;;;;;;;14.91;nan;99690.69;2099203;28;20842;-79
2022/07/03 00:36:48;;;;;;;30.37;27.50;;;;;;;14.95;nan;99697.03;2099064;28;20455;-79
2022/07/03 00:37:49;;;;;;;31.53;28.40;;;;;;;14.96;nan;99697.81;2099194;28;20535;-79
2022/07/03 00:38:51;;;;;;;30.97;27.97;;;;;;;14.98;nan;99696.41;2098644;28;20425;-79
2022/07/03 00:39:52;;;;;;;30.27;27.33;;;;;;;15.01;nan;99692.28;2091640;28;20175;-79
2022/07/03 00:40:54;;;;;;;30.07;27.07;;;;;;;15.03;nan;99690.13;2099177;28;20467;-79
2022/07/03 00:42:04;;;;;;;31.63;28.60;;;;;;;15.05;nan;99693.28;2099397;28;20935;-79
2022/07/03 00:43:05;;;;;;;30.30;27.47;;;;;;;15.07;nan;99695.66;2091770;28;20499;-79
2022/07/03 00:44:06;;;;;;;30.60;27.53;;;;;;;15.09;nan;99699.59;2099148;28;20528;-79
2022/07/03 00:45:09;;;;;;;31.63;28.63;;;;;;;15.09;nan;99694.22;2099784;28;20474;-79
2022/07/03 00:46:10;;;;;;;29.83;27.03;;;;;;;15.09;nan;99688.84;2091494;28;20183;-79
2022/07/03 00:47:13;;;;;;;29.50;26.70;;;;;;;15.10;nan;99695.03;2099108;28;20532;-79
2022/07/03 00:48:15;;;;;;;29.40;26.27;;;;;;;15.09;nan;99688.84;2099470;28;20464;-79
2022/07/03 00:49:19;;;;;;;30.90;27.97;;;;;;;15.13;nan;99692.53;2090932;28;20836;-79
2022/07/03 00:50:24;;;;;;;30.90;27.83;;;;;;;15.14;nan;99687.94;2092136;28;20879;-79
2022/07/03 00:51:28;;;;;;;29.50;26.67;;;;;;;15.13;nan;99673.72;2090425;28;20453;-79
2022/07/03 00:52:30;;;;;;;30.77;27.77;;;;;;;15.14;nan;99680.66;2090908;28;20461;-79
2022/07/03 00:53:33;;;;;;;30.77;27.77;;;;;;;15.15;nan;99684.94;2091982;28;20433;-79
2022/07/03 00:54:36;;;;;;;30.80;27.50;;;;;;;15.16;nan;99672.28;2090887;28;20978;-79
2022/07/03 00:55:40;;;;;;;30.97;27.90;;;;;;;15.15;nan;99676.88;2099131;28;20955;-79
2022/07/03 00:56:42;;;;;;;30.80;27.83;;;;;;;15.15;nan;99676.88;2098791;28;20483;-79
2022/07/03 00:57:46;;;;;;;30.70;27.80;;;;;;;15.18;nan;99673.53;2091473;28;20438;-79
2022/07/03 00:58:47;;;;;;;31.23;28.13;;;;;;;15.20;nan;99674.06;2091631;28;20437;-79
2022/07/03 00:59:48;;;;;;;29.50;26.90;;;;;;;15.18;nan;99672.75;2091449;28;20433;-79
2022/07/03 01:00:51;;;;;;;30.67;27.57;;;;;;;15.21;nan;99666.78;2099769;28;20301;-79
2022/07/03 01:01:56;;;;;;;29.37;26.77;;;;;;;15.23;nan;99670.72;2099041;28;20500;-79
2022/07/03 01:03:05;;;;;;;29.93;27.03;;;;;;;15.24;nan;99666.16;2091423;28;20472;-79
2022/07/03 01:04:19;;;;;;;29.77;26.97;;;;;;;15.24;nan;99656.19;2091560;28;20471;-79
2022/07/03 01:05:26;;;;;;;29.30;26.53;;;;;;;15.24;nan;99661.56;2099268;28;20436;-79
2022/07/03 01:06:34;;;;;;;28.90;26.30;;;;;;;15.27;nan;99660.13;2091183;28;20461;-79
2022/07/03 01:07:45;;;;;;;29.13;26.33;;;;;;;15.27;nan;99663.63;2090875;28;20439;-79
2022/07/03 01:08:51;;;;;;;28.07;25.43;;;;;;;15.28;nan;99653.66;2092090;28;20493;-79
2022/07/03 01:09:57;;;;;;;28.10;25.60;;;;;;;15.30;nan;99653.38;2099004;28;20511;-79
2022/07/03 01:11:15;;;;;;;29.80;27.10;;;;;;;15.30;nan;99651.47;2098516;28;20945;-79
2022/07/03 01:12:23;;;;;;;29.47;26.57;;;;;;;15.33;nan;99650.84;2091387;28;20410;-79
2022/07/03 01:13:36;;;;;;;28.23;25.73;;;;;;;15.36;nan;99649.41;2091453;28;20445;-79
2022/07/03 01:14:48;;;;;;;28.17;25.77;;;;;;;15.37;nan;99651.78;2098950;28;20819;-79
2022/07/03 01:15:57;;;;;;;28.27;25.77;;;;;;;15.42;nan;99648.94;2099390;28;20934;-79
2022/07/03 01:17:03;;;;;;;28.20;25.73;;;;;;;15.45;nan;99647.53;2098063;28;20911;-79
2022/07/03 01:18:23;;;;;;;28.97;26.47;;;;;;;15.48;nan;99649.59;2098878;28;20444;-79
2022/07/03 01:19:37;;;;;;;28.77;26.37;;;;;;;15.50;nan;99650.88;2096704;28;20520;-79
2022/07/03 01:20:38;;;;;;;28.27;25.87;;;;;;;15.52;nan;99647.84;2091312;28;20823;-79
2022/07/03 01:21:43;;;;;;;28.10;25.70;;;;;;;15.53;nan;99649.44;2098525;28;20522;-79
2022/07/03 01:22:49;;;;;;;28.70;26.13;;;;;;;15.53;nan;99650.22;2098380;28;20222;-79
2022/07/03 01:24:23;;;;;;;27.70;25.30;;;;;;;15.57;nan;99649.63;2098877;28;20998;-79
2022/07/03 01:25:25;;;;;;;28.37;25.77;;;;;;;15.57;nan;99647.72;2073995;28;20408;-79
2022/07/03 01:26:30;;;;;;;28.27;25.87;;;;;;;15.58;nan;99649.31;2083701;28;20549;-79
2022/07/03 01:27:36;;;;;;;27.90;25.40;;;;;;;15.60;nan;99649.78;2091315;28;20430;-79
2022/07/03 01:28:40;;;;;;;28.80;26.30;;;;;;;15.61;nan;99656.75;2097798;28;20471;-79
2022/07/03 01:29:51;;;;;;;28.87;26.47;;;;;;;15.62;nan;99644.88;2099021;28;20456;-79
2022/07/03 01:30:55;;;;;;;27.03;24.73;;;;;;;15.61;nan;99640.63;2097741;28;20815;-79
2022/07/03 01:31:57;;;;;;;28.87;26.07;;;;;;;15.61;nan;99642.53;2091161;28;20491;-79
2022/07/03 01:33:00;;;;;;;28.60;26.10;;;;;;;15.62;nan;99652.97;2091165;28;20941;-79
2022/07/03 01:34:01;;;;;;;28.80;26.20;;;;;;;15.65;nan;99652.34;2091162;28;20878;-79
2022/07/03 01:35:03;;;;;;;28.80;26.20;;;;;;;15.66;nan;99650.47;2091235;28;20430;-79
2022/07/03 01:36:05;;;;;;;28.57;26.10;;;;;;;15.66;nan;99653.94;2090787;28;20437;-78
2022/07/03 01:37:08;;;;;;;29.07;26.37;;;;;;;15.68;nan;99645.53;2091260;28;20416;-79
2022/07/03 01:38:10;;;;;;;28.37;25.97;;;;;;;15.73;nan;99643.50;2098982;28;20448;-79
2022/07/03 01:39:12;;;;;;;29.63;26.83;;;;;;;15.84;nan;99635.91;2098447;28;20460;-79
2022/07/03 01:40:14;;;;;;;28.60;25.97;;;;;;;15.89;nan;99634.94;2099441;28;20506;-79
2022/07/03 01:41:16;;;;;;;28.80;26.07;;;;;;;15.88;nan;99634.16;2090400;28;20483;-79
2022/07/03 01:42:18;;;;;;;28.33;25.83;;;;;;;15.90;nan;99637.34;2082129;28;20951;-79
2022/07/03 01:43:25;;;;;;;27.60;25.20;;;;;;;15.93;nan;99636.69;2091059;28;20461;-79
2022/07/03 01:44:27;;;;;;;27.67;25.00;;;;;;;15.91;nan;99627.38;2091353;28;20409;-79
2022/07/03 01:45:29;;;;;;;29.33;26.40;;;;;;;15.89;nan;99632.25;2091942;28;20421;-79
2022/07/03 01:46:31;;;;;;;29.43;26.63;;;;;;;15.87;nan;99626.41;2098630;28;20625;-79
2022/07/03 01:47:35;;;;;;;28.10;25.20;;;;;;;15.87;nan;99626.41;2098487;28;20502;-79
2022/07/03 01:48:37;;;;;;;30.70;26.47;;;;;;;15.85;nan;99621.34;2091007;28;20992;-79
2022/07/03 01:49:39;;;;;;;28.70;26.10;;;;;;;15.87;nan;99626.41;2098854;28;20436;-79
2022/07/03 01:50:41;;;;;;;29.30;26.60;;;;;;;15.85;nan;99624.03;2098956;28;20437;-79
2022/07/03 01:51:44;;;;;;;28.50;25.90;;;;;;;15.88;nan;99627.97;2090201;28;20805;-79
2022/07/03 01:52:45;;;;;;;27.30;25.07;;;;;;;15.87;nan;99629.88;2091119;28;20457;-79
2022/07/03 01:53:48;;;;;;;28.33;25.80;;;;;;;15.90;nan;99625.75;2091838;28;20572;-79
2022/07/03 01:54:49;;;;;;;28.63;25.87;;;;;;;15.89;nan;99629.56;2090998;28;20963;-79
2022/07/03 01:55:51;;;;;;;28.53;26.13;;;;;;;15.88;nan;99630.66;2091109;28;20425;-79
2022/07/03 01:56:53;;;;;;;27.60;25.20;;;;;;;15.91;nan;99627.38;2091022;28;20446;-79
2022/07/03 01:57:57;;;;;;;28.33;25.77;;;;;;;15.93;nan;99630.53;2090965;28;20421;-79
2022/07/03 01:58:59;;;;;;;28.73;26.20;;;;;;;15.91;nan;99633.53;2091079;28;20425;-79
2022/07/03 02:00:01;;;;;;;28.90;26.40;;;;;;;15.92;nan;99627.03;2090941;28;20525;-79
2022/07/03 02:01:19;;;;;;;27.40;25.10;;;;;;;15.91;nan;99627.38;2091007;28;20391;-79
2022/07/03 02:02:22;;;;;;;28.67;26.17;;;;;;;15.90;nan;99640.03;2098561;28;20590;-79
2022/07/03 02:03:30;;;;;;;28.53;26.10;;;;;;;15.89;nan;99630.34;2098196;28;20487;-79
2022/07/03 02:04:34;;;;;;;27.93;25.37;;;;;;;15.90;nan;99636.53;2091077;28;20456;-79
2022/07/03 02:05:40;;;;;;;28.27;25.70;;;;;;;15.88;nan;99630.66;2090932;28;20512;-79
2022/07/03 02:06:44;;;;;;;28.27;25.87;;;;;;;15.90;nan;99631.13;2090616;28;20454;-79
2022/07/03 02:07:50;;;;;;;28.50;26.10;;;;;;;15.90;nan;99637.34;2090993;28;20440;-79
2022/07/03 02:08:58;;;;;;;29.13;26.37;;;;;;;15.89;nan;99633.03;2098480;28;20452;-79
2022/07/03 02:10:07;;;;;;;27.43;25.13;;;;;;;15.87;nan;99626.41;2097835;28;20433;-79
2022/07/03 02:11:15;;;;;;;26.97;24.73;;;;;;;15.87;nan;99632.56;2090328;28;20409;-79
2022/07/03 02:12:20;;;;;;;27.23;24.93;;;;;;;15.89;nan;99624.16;2090544;28;20394;-79
2022/07/03 02:13:24;;;;;;;27.90;25.27;;;;;;;15.90;nan;99628.44;2090955;28;20425;-79
2022/07/03 02:14:26;;;;;;;27.27;24.93;;;;;;;15.89;nan;99627.66;2090850;28;20516;-79
2022/07/03 02:15:29;;;;;;;27.57;25.30;;;;;;;15.88;nan;99623.38;2090853;28;20457;-80
2022/07/03 02:16:39;;;;;;;28.63;25.80;;;;;;;15.88;nan;99619.91;2090796;28;20435;-80
2022/07/03 02:17:44;;;;;;;27.37;25.13;;;;;;;15.88;nan;99618.00;2098714;28;20472;-80
2022/07/03 02:18:51;;;;;;;28.90;26.20;;;;;;;15.88;nan;99612.63;2090131;28;20963;-80
2022/07/03 02:19:55;;;;;;;29.40;26.73;;;;;;;15.93;nan;99619.75;2090341;28;20402;-80
2022/07/03 02:21:05;;;;;;;32.10;29.10;;;;;;;15.95;nan;99617.53;2090511;28;20471;-80
2022/07/03 02:22:07;;;;;;;31.60;28.33;;;;;;;15.95;nan;99629.09;2098394;28;20540;-80
2022/07/03 02:23:09;;;;;;;32.90;29.70;;;;;;;15.99;nan;99621.19;2098335;28;20464;-80
2022/07/03 02:24:17;;;;;;;32.30;29.40;;;;;;;16.01;nan;99621.66;2090746;28;20421;-80
2022/07/03 02:25:22;;;;;;;30.93;28.13;;;;;;;16.02;nan;99609.78;2090780;28;20402;-80
2022/07/03 02:26:27;;;;;;;33.13;29.63;;;;;;;16.00;nan;99617.38;2090774;28;20426;-80
2022/07/03 02:27:33;;;;;;;31.23;28.23;;;;;;;15.99;nan;99615.81;2098558;28;20483;-80
2022/07/03 02:28:45;;;;;;;32.00;29.10;;;;;;;15.98;nan;99614.97;2097443;28;21009;-80
2022/07/03 02:29:56;;;;;;;32.40;29.00;;;;;;;16.00;nan;99622.75;2090874;28;20909;-80
2022/07/03 02:30:59;;;;;;;30.30;27.50;;;;;;;15.99;nan;99618.50;2090014;28;20445;-80
2022/07/03 02:32:06;;;;;;;31.33;28.33;;;;;;;15.98;nan;99614.97;2090124;28;20862;-80
2022/07/03 02:33:08;;;;;;;31.47;28.30;;;;;;;15.98;nan;99616.88;2091630;28;20413;-80
2022/07/03 02:34:15;;;;;;;32.50;29.33;;;;;;;16.01;nan;99619.75;2090788;28;20422;-80
2022/07/03 02:35:18;;;;;;;32.33;29.03;;;;;;;15.98;nan;99616.88;2091466;28;20429;-80
2022/07/03 02:36:20;;;;;;;33.50;30.10;;;;;;;15.96;nan;99619.09;2089609;28;20464;-80
2022/07/03 02:37:22;;;;;;;32.10;29.00;;;;;;;15.96;nan;99616.41;2090353;28;20490;-80
2022/07/03 02:38:26;;;;;;;32.00;29.10;;;;;;;15.93;nan;99617.84;2091266;28;20429;-80
2022/07/03 02:39:35;;;;;;;32.83;29.83;;;;;;;15.91;nan;99622.78;2090546;28;20979;-80
2022/07/03 02:40:41;;;;;;;32.73;29.40;;;;;;;15.92;nan;99612.78;2098285;28;20947;-80
2022/07/03 02:41:46;;;;;;;34.13;30.13;;;;;;;15.92;nan;99612.78;2097849;28;20408;-80
2022/07/03 02:42:56;;;;;;;32.03;28.90;;;;;;;15.89;nan;99608.81;2090587;28;20425;-80
2022/07/03 02:44:02;;;;;;;31.97;28.87;;;;;;;15.90;nan;99612.28;2098141;28;20510;-80
2022/07/03 02:45:05;;;;;;;32.50;29.17;;;;;;;15.87;nan;99613.72;2089974;28;20920;-80
2022/07/03 02:47:34;;;;;;;31.87;28.70;;;;;;;15.88;nan;99618.00;2097514;28;20522;-80
2022/07/03 02:48:40;;;;;;;33.70;30.23;;;;;;;15.88;nan;99618.00;2097247;28;20783;-80
2022/07/03 02:49:44;;;;;;;33.63;30.40;;;;;;;15.87;nan;99615.63;2097945;28;20476;-80
2022/07/03 02:50:47;;;;;;;32.60;29.37;;;;;;;15.88;nan;99614.53;2097888;28;20433;-80
2022/07/03 02:51:53;;;;;;;32.97;29.73;;;;;;;15.88;nan;99617.22;2090245;28;20464;-80
2022/07/03 02:53:01;;;;;;;34.07;30.93;;;;;;;15.89;nan;99616.88;2090771;28;20860;-80
2022/07/03 02:54:09;;;;;;;33.87;30.60;;;;;;;15.89;nan;99614.19;2090792;28;20406;-80
2022/07/03 02:55:22;;;;;;;34.07;30.67;;;;;;;15.91;nan;99622.78;2098161;28;20428;-80
2022/07/03 02:56:29;;;;;;;33.30;30.10;;;;;;;15.88;nan;99612.63;2096455;28;20436;-80
2022/07/03 02:57:38;;;;;;;34.90;31.13;;;;;;;15.87;nan;99621.81;2090673;28;20520;-80
2022/07/03 02:58:47;;;;;;;34.40;30.90;;;;;;;15.86;nan;99605.97;2097277;28;20501;-80
2022/07/03 02:59:58;;;;;;;32.27;29.33;;;;;;;15.84;nan;99611.69;2090669;28;20493;-80
2022/07/03 03:01:07;;;;;;;32.00;28.87;;;;;;;15.82;nan;99609.31;2098100;28;21072;-80
2022/07/03 03:02:14;;;;;;;33.20;29.93;;;;;;;15.82;nan;99609.31;2097402;28;20413;-80
2022/07/03 03:03:17;;;;;;;31.70;28.53;;;;;;;15.82;nan;99606.63;2090739;28;20464;-80
2022/07/03 03:04:22;;;;;;;33.20;29.90;;;;;;;15.81;nan;99598.84;2090041;28;20470;-80
2022/07/03 03:05:29;;;;;;;33.40;29.97;;;;;;;15.82;nan;99603.94;2090274;28;20437;-80
2022/07/03 03:06:34;;;;;;;34.47;31.17;;;;;;;15.86;nan;99598.69;2089353;28;20446;-80
2022/07/03 03:07:43;;;;;;;32.80;29.60;;;;;;;15.86;nan;99606.78;2089911;28;20901;-80
2022/07/03 03:08:48;;;;;;;32.40;29.30;;;;;;;15.87;nan;99612.94;2090613;28;20484;-80
2022/07/03 03:09:49;;;;;;;36.87;30.40;;;;;;;15.86;nan;99608.66;2090449;28;20927;-80
2022/07/03 03:10:51;;;;;;;33.27;29.77;;;;;;;15.87;nan;99611.03;2090465;28;20838;-80
2022/07/03 03:11:52;;;;;;;33.90;30.23;;;;;;;15.90;nan;99615.00;2090657;28;20219;-80
2022/07/03 03:13:01;;;;;;;33.00;29.53;;;;;;;15.89;nan;99606.13;2090429;28;20955;-80
2022/07/03 03:14:06;;;;;;;33.07;29.73;;;;;;;15.90;nan;99606.91;2090455;28;20756;-80
2022/07/03 03:15:12;;;;;;;33.47;30.30;;;;;;;15.89;nan;99602.66;2097986;28;20445;-80
2022/07/03 03:16:14;;;;;;;33.13;29.73;;;;;;;15.89;nan;99608.03;2097572;28;20486;-80
2022/07/03 03:17:18;;;;;;;33.80;30.30;;;;;;;15.89;nan;99608.03;2090009;28;20540;-80
2022/07/03 03:18:21;;;;;;;33.20;30.00;;;;;;;15.93;nan;99609.00;2089816;28;20471;-80
2022/07/03 03:19:24;;;;;;;33.40;30.27;;;;;;;15.93;nan;99612.47;2090424;28;20849;-80
2022/07/03 03:20:31;;;;;;;32.23;29.17;;;;;;;15.93;nan;99609.00;2090418;28;20917;-80
2022/07/03 03:21:41;;;;;;;33.97;30.47;;;;;;;15.95;nan;99610.25;2090085;28;20543;-80
2022/07/03 03:23:00;;;;;;;31.83;28.83;;;;;;;16.02;nan;99612.47;2090658;28;20394;-79
2022/07/03 03:24:02;;;;;;;33.30;29.73;;;;;;;16.01;nan;99608.19;2089548;28;20445;-80
2022/07/03 03:25:03;;;;;;;31.33;28.23;;;;;;;16.00;nan;99614.69;2097897;28;20936;-79
2022/07/03 03:26:05;;;;;;;33.37;29.40;;;;;;;16.01;nan;99603.59;2098096;28;20421;-80
2022/07/03 03:27:05;;;;;;;31.27;28.47;;;;;;;16.05;nan;99606.44;2098006;28;20444;-80
2022/07/03 03:28:07;;;;;;;32.13;28.87;;;;;;;16.03;nan;99608.66;2098404;28;20436;-79
2022/07/03 03:29:08;;;;;;;32.80;29.70;;;;;;;16.03;nan;99603.28;2090341;28;20191;-80
2022/07/03 03:30:12;;;;;;;32.57;29.37;;;;;;;16.01;nan;99610.88;2090332;28;20513;-80
2022/07/03 03:31:13;;;;;;;32.70;29.47;;;;;;;16.03;nan;99612.16;2090520;28;20218;-80
2022/07/03 03:32:16;;;;;;;32.00;28.77;;;;;;;16.01;nan;99606.28;2098001;28;20448;-80
2022/07/03 03:33:17;;;;;;;32.47;29.47;;;;;;;16.03;nan;99608.66;2090646;28;20438;-79
2022/07/03 03:34:19;;;;;;;34.90;31.23;;;;;;;16.04;nan;99611.03;2081462;28;20533;-80
2022/07/03 03:35:21;;;;;;;33.03;29.93;;;;;;;16.08;nan;99611.19;2081430;28;20450;-79
2022/07/03 03:36:22;;;;;;;35.00;31.40;;;;;;;16.08;nan;99608.50;2081558;28;20454;-80
2022/07/03 03:37:23;;;;;;;34.37;30.83;;;;;;;16.09;nan;99612.78;2081412;28;20548;-80
2022/07/03 03:38:25;;;;;;;33.07;29.97;;;;;;;16.11;nan;99611.34;2090625;28;20435;-79
2022/07/03 03:39:25;;;;;;;33.80;30.40;;;;;;;16.14;nan;99606.41;2090275;28;20314;-79
2022/07/03 03:40:27;;;;;;;34.23;30.60;;;;;;;16.14;nan;99604.53;2090386;28;20425;-79
2022/07/03 03:41:28;;;;;;;33.43;30.27;;;;;;;16.17;nan;99608.50;2091203;28;20218;-80
2022/07/03 03:42:31;;;;;;;34.50;31.07;;;;;;;16.19;nan;99607.06;2090421;28;20428;-80
2022/07/03 03:43:33;;;;;;;34.27;30.70;;;;;;;16.21;nan;99607.53;2090367;28;20191;-79
2022/07/03 03:44:35;;;;;;;35.10;31.47;;;;;;;16.22;nan;99602.94;2089580;28;20485;-80
2022/07/03 03:45:37;;;;;;;34.03;30.73;;;;;;;16.23;nan;99613.38;2089610;28;20449;-80
2022/07/03 03:46:38;;;;;;;34.47;31.07;;;;;;;16.25;nan;99611.19;2090209;28;20487;-79
2022/07/03 03:47:43;;;;;;;33.93;30.43;;;;;;;16.26;nan;99607.38;2089888;28;21038;-80
2022/07/03 03:48:46;;;;;;;33.23;29.77;;;;;;;16.28;nan;99610.53;2090576;28;20425;-80
2022/07/03 03:49:47;;;;;;;32.20;29.07;;;;;;;16.32;nan;99603.38;2090514;28;20433;-80
2022/07/03 03:50:49;;;;;;;32.90;29.63;;;;;;;16.37;nan;99602.44;2090369;28;20908;-80
2022/07/03 03:51:50;;;;;;;33.10;29.50;;;;;;;16.36;nan;99601.63;2090511;28;20250;-80
2022/07/03 03:52:51;;;;;;;33.67;30.13;;;;;;;16.38;nan;99598.63;2090284;28;20433;-80
2022/07/03 03:53:52;;;;;;;33.90;30.43;;;;;;;16.38;nan;99590.53;2098555;28;20224;-79
2022/07/03 03:54:56;;;;;;;34.23;30.83;;;;;;;16.44;nan;99597.34;2098052;28;20435;-80
2022/07/03 03:56:03;;;;;;;34.03;30.73;;;;;;;16.44;nan;99597.34;2090494;28;20535;-80
2022/07/03 03:57:18;;;;;;;33.33;30.20;;;;;;;16.43;nan;99595.75;2098457;28;20461;-80
2022/07/03 03:58:19;;;;;;;33.50;30.10;;;;;;;16.41;nan;99592.56;2095634;28;20444;-80
2022/07/03 03:59:21;;;;;;;38.07;31.40;;;;;;;16.39;nan;99587.53;2090344;28;20520;-80
2022/07/03 04:00:22;;;;;;;34.57;30.43;;;;;;;16.40;nan;99599.09;2089525;28;20234;-80
2022/07/03 04:01:25;;;;;;;34.47;31.27;;;;;;;16.42;nan;99593.38;2089700;28;20920;-80
2022/07/03 04:02:28;;;;;;;33.60;30.50;;;;;;;16.39;nan;99592.91;2090319;28;20541;-80
2022/07/03 04:03:31;;;;;;;31.77;28.73;;;;;;;16.41;nan;99595.28;2089655;28;20475;-80
2022/07/03 04:04:31;;;;;;;33.27;30.20;;;;;;;16.38;nan;99596.72;2091291;28;20472;-80
2022/07/03 04:05:33;;;;;;;32.93;29.60;;;;;;;16.36;nan;99596.25;2090295;28;20417;-80
2022/07/03 04:06:33;;;;;;;33.50;30.33;;;;;;;16.33;nan;99594.22;2089990;28;20673;-80
2022/07/03 04:07:35;;;;;;;33.93;30.50;;;;;;;16.32;nan;99594.50;2090667;28;20787;-80
2022/07/03 04:08:38;;;;;;;32.90;29.50;;;;;;;16.32;nan;99600.69;2090214;28;20191;-80
2022/07/03 04:09:42;;;;;;;31.87;29.00;;;;;;;16.31;nan;99596.41;2089938;28;20441;-80
2022/07/03 04:10:43;;;;;;;32.60;29.60;;;;;;;16.35;nan;99601.97;2081715;28;20541;-80
2022/07/03 04:11:44;;;;;;;34.37;30.80;;;;;;;16.33;nan;99596.91;2089863;28;20433;-80
2022/07/03 04:12:45;;;;;;;33.40;30.20;;;;;;;16.39;nan;99605.59;2091424;28;20249;-80
2022/07/03 04:13:47;;;;;;;33.87;30.33;;;;;;;16.37;nan;99605.13;2089804;28;20441;-80
2022/07/03 04:14:48;;;;;;;31.97;29.13;;;;;;;16.36;nan;99601.63;2089565;28;20226;-80
2022/07/03 04:15:51;;;;;;;39.23;31.03;;;;;;;16.40;nan;99607.16;2090122;28;20433;-80
2022/07/03 04:16:55;;;;;;;34.43;31.13;;;;;;;16.43;nan;99606.53;2090392;28;20194;-80
2022/07/03 04:17:57;;;;;;;33.30;30.07;;;;;;;16.44;nan;99610.03;2090713;28;20425;-80
2022/07/03 04:18:57;;;;;;;33.50;30.30;;;;;;;16.46;nan;99613.19;2090196;28;20472;-80
2022/07/03 04:19:59;;;;;;;33.43;30.43;;;;;;;16.48;nan;99613.63;2090354;28;20429;-80
2022/07/03 04:21:00;;;;;;;34.10;30.77;;;;;;;16.53;nan;99621.56;2090265;28;20225;-79
2022/07/03 04:22:08;;;;;;;34.73;31.00;;;;;;;16.55;nan;99616.63;2090306;28;20413;-80
2022/07/03 04:23:10;;;;;;;33.77;30.40;;;;;;;16.64;nan;99617.41;2090916;28;20171;-79
2022/07/03 04:24:15;;;;;;;32.93;29.90;;;;;;;16.72;nan;99616.59;2090245;28;20430;-80
2022/07/03 04:25:16;;;;;;;34.70;31.10;;;;;;;16.78;nan;99618.03;2090174;28;20484;-80
2022/07/03 04:26:18;;;;;;;35.53;31.90;;;;;;;16.81;nan;99611.97;2098039;28;20448;-79
2022/07/03 04:27:18;;;;;;;33.20;29.97;;;;;;;16.85;nan;99612.94;2097789;28;20225;-80
2022/07/03 04:28:20;;;;;;;41.00;31.00;;;;;;;16.90;nan;99610.03;2090787;28;20421;-79
2022/07/03 04:29:23;;;;;;;33.97;30.70;;;;;;;16.93;nan;99603.97;2090129;28;20229;-80
2022/07/03 04:30:25;;;;;;;33.20;30.17;;;;;;;16.98;nan;99602.22;2090255;28;20490;-79
2022/07/03 04:31:26;;;;;;;33.87;30.50;;;;;;;16.99;nan;99598.41;2090760;28;20430;-80
2022/07/03 04:32:29;;;;;;;34.60;31.33;;;;;;;17.03;nan;99596.63;2089442;28;20479;-79
2022/07/03 04:33:30;;;;;;;32.87;29.97;;;;;;;17.04;nan;99598.25;2090428;28;20653;-79
2022/07/03 04:34:31;;;;;;;32.40;29.53;;;;;;;17.06;nan;99604.09;2089429;28;20548;-80
2022/07/03 04:35:32;;;;;;;34.73;31.10;;;;;;;17.08;nan;99599.16;2090336;28;20262;-79
2022/07/03 04:36:36;;;;;;;32.60;29.33;;;;;;;17.07;nan;99597.59;2091855;28;20458;-79
2022/07/03 04:37:42;;;;;;;32.97;29.93;;;;;;;17.04;nan;99590.94;2091768;28;20199;-79
2022/07/03 04:38:44;;;;;;;32.87;29.97;;;;;;;17.03;nan;99597.47;2099790;28;20435;-79
2022/07/03 04:39:45;;;;;;;31.97;28.93;;;;;;;17.08;nan;99588.38;2099048;28;20542;-79
2022/07/03 04:40:47;;;;;;;32.87;29.67;;;;;;;17.11;nan;99599.28;2091837;28;20429;-79
2022/07/03 04:41:47;;;;;;;32.43;28.93;;;;;;;17.12;nan;99595.50;2092134;28;20191;-79
2022/07/03 04:42:49;;;;;;;32.57;29.47;;;;;;;17.15;nan;99602.13;2090872;28;20434;-80
2022/07/03 04:43:52;;;;;;;31.33;28.63;;;;;;;17.14;nan;99592.47;2091479;28;20199;-79
2022/07/03 04:44:56;;;;;;;32.30;29.17;;;;;;;17.17;nan;99602.59;2091527;28;20461;-79
2022/07/03 04:45:57;;;;;;;31.17;28.30;;;;;;;17.20;nan;99591.16;2099320;28;20467;-79
2022/07/03 04:46:58;;;;;;;31.80;28.80;;;;;;;17.24;nan;99597.47;2099970;28;20425;-79
2022/07/03 04:48:00;;;;;;;32.53;29.40;;;;;;;17.27;nan;99590.63;2099168;28;20685;-79
2022/07/03 04:49:02;;;;;;;31.67;28.67;;;;;;;17.32;nan;99588.56;2091291;28;20445;-79
2022/07/03 04:50:05;;;;;;;32.40;29.33;;;;;;;17.35;nan;99590.59;2090937;28;20863;-79
2022/07/03 04:51:09;;;;;;;30.00;27.20;;;;;;;17.36;nan;99584.06;2090989;28;20505;-78
2022/07/03 04:52:10;;;;;;;32.07;28.90;;;;;;;17.38;nan;99586.47;2099825;28;20448;-79
2022/07/03 04:53:12;;;;;;;31.37;28.30;;;;;;;17.34;nan;99580.91;2090794;28;20462;-79
2022/07/03 04:54:12;;;;;;;31.63;28.40;;;;;;;17.42;nan;99588.16;2091133;28;20340;-79
2022/07/03 04:55:14;;;;;;;31.70;28.67;;;;;;;17.41;nan;99583.88;2099485;28;20432;-79
2022/07/03 04:56:15;;;;;;;32.70;29.27;;;;;;;17.45;nan;99589.41;2091471;28;20266;-79
2022/07/03 04:57:17;;;;;;;31.60;28.53;;;;;;;17.46;nan;99588.28;2091597;28;20465;-79
2022/07/03 04:58:20;;;;;;;30.47;27.67;;;;;;;17.43;nan;99587.03;2091001;28;20195;-79
2022/07/03 04:59:23;;;;;;;31.87;28.67;;;;;;;17.43;nan;99580.84;2099027;28;20459;-79
2022/07/03 05:00:23;;;;;;;31.33;28.70;;;;;;;17.42;nan;99588.16;2092107;28;20517;-79
2022/07/03 05:01:25;;;;;;;30.73;27.93;;;;;;;17.48;nan;99591.47;2090748;28;20445;-79
2022/07/03 05:02:25;;;;;;;32.80;29.10;;;;;;;17.51;nan;99583.50;2091305;28;20209;-78